sensor_id;sensor_type;location;lat;lon;timestamp;P1;durP1;ratioP1;P2;durP2;ratioP2
61638;SDS011;47544;52.484;4.658;2022-07-21T00:00:00;13.73;;;8.80;;
61638;SDS011;47544;52.484;4.658;2022-07-21T00:00:14;14.65;;;8.60;;
61638;SDS011;47544;52.484;4.658;2022-07-21T00:00:26;13.80;;;8.18;;
61638;SDS011;47544;52.484;4.658;2022-07-21T00:00:38;13.25;;;7.55;;
61638;SDS011;47544;52.484;4.658;2022-07-21T00:00:49;11.90;;;7.35;;
61638;SDS011;47544;52.484;4.658;2022-07-21T00:01:00;12.27;;;7.43;;
61638;SDS011;47544;52.484;4.658;2022-07-21T00:01:11;12.23;;;7.70;;
61638;SDS011;47544;52.484;4.658;2022-07-21T00:01:22;12.80;;;7.95;;
61638;SDS011;47544;52.484;4.658;2022-07-21T00:01:33;11.90;;;7.88;;
61638;SDS011;47544;52.484;4.658;2022-07-21T00:01:44;11.73;;;8.05;;
61638;SDS011;47544;52.484;4.658;2022-07-21T00:01:56;10.88;;;8.00;;
61638;SDS011;47544;52.484;4.658;2022-07-21T00:02:08;11.57;;;8.27;;
61638;SDS011;47544;52.484;4.658;2022-07-21T00:02:19;12.05;;;8.02;;
61638;SDS011;47544;52.484;4.658;2022-07-21T00:02:30;12.95;;;7.90;;
61638;SDS011;47544;52.484;4.658;2022-07-21T00:02:41;11.70;;;7.70;;
61638;SDS011;47544;52.484;4.658;2022-07-21T00:02:52;11.90;;;8.02;;
61638;SDS011;47544;52.484;4.658;2022-07-21T00:03:07;12.63;;;8.48;;
61638;SDS011;47544;52.484;4.658;2022-07-21T00:03:18;12.70;;;8.50;;
61638;SDS011;47544;52.484;4.658;2022-07-21T00:03:30;12.25;;;8.23;;
61638;SDS011;47544;52.484;4.658;2022-07-21T00:03:41;12.43;;;7.82;;
61638;SDS011;47544;52.484;4.658;2022-07-21T00:03:52;12.48;;;7.82;;
61638;SDS011;47544;52.484;4.658;2022-07-21T00:04:03;13.30;;;8.23;;
61638;SDS011;47544;52.484;4.658;2022-07-21T00:04:14;12.90;;;8.30;;
61638;SDS011;47544;52.484;4.658;2022-07-21T00:04:26;12.30;;;7.75;;
61638;SDS011;47544;52.484;4.658;2022-07-21T00:04:37;13.07;;;7.20;;
61638;SDS011;47544;52.484;4.658;2022-07-21T00:04:48;13.57;;;7.27;;
61638;SDS011;47544;52.484;4.658;2022-07-21T00:04:59;13.35;;;7.35;;
61638;SDS011;47544;52.484;4.658;2022-07-21T00:05:10;13.05;;;7.80;;
61638;SDS011;47544;52.484;4.658;2022-07-21T00:05:21;12.93;;;7.80;;
61638;SDS011;47544;52.484;4.658;2022-07-21T00:05:32;12.93;;;7.80;;
61638;SDS011;47544;52.484;4.658;2022-07-21T00:05:43;12.73;;;8.05;;
61638;SDS011;47544;52.484;4.658;2022-07-21T00:05:57;13.25;;;8.10;;
61638;SDS011;47544;52.484;4.658;2022-07-21T00:06:08;13.30;;;7.93;;
61638;SDS011;47544;52.484;4.658;2022-07-21T00:06:19;12.63;;;7.60;;
61638;SDS011;47544;52.484;4.658;2022-07-21T00:06:30;12.52;;;7.68;;
61638;SDS011;47544;52.484;4.658;2022-07-21T00:06:40;12.82;;;7.70;;
61638;SDS011;47544;52.484;4.658;2022-07-21T00:06:51;13.40;;;7.77;;
61638;SDS011;47544;52.484;4.658;2022-07-21T00:07:02;13.32;;;7.80;;
61638;SDS011;47544;52.484;4.658;2022-07-21T00:07:14;12.48;;;7.68;;
61638;SDS011;47544;52.484;4.658;2022-07-21T00:07:25;12.57;;;7.78;;
61638;SDS011;47544;52.484;4.658;2022-07-21T00:07:36;11.40;;;7.32;;
61638;SDS011;47544;52.484;4.658;2022-07-21T00:07:47;11.23;;;7.38;;
61638;SDS011;47544;52.484;4.658;2022-07-21T00:07:58;10.60;;;7.40;;
61638;SDS011;47544;52.484;4.658;2022-07-21T00:08:09;11.60;;;7.70;;
61638;SDS011;47544;52.484;4.658;2022-07-21T00:08:19;13.13;;;8.10;;
61638;SDS011;47544;52.484;4.658;2022-07-21T00:08:31;12.95;;;7.93;;
61638;SDS011;47544;52.484;4.658;2022-07-21T00:08:42;12.07;;;7.90;;
61638;SDS011;47544;52.484;4.658;2022-07-21T00:08:53;11.52;;;7.80;;
61638;SDS011;47544;52.484;4.658;2022-07-21T00:09:04;12.02;;;7.90;;
61638;SDS011;47544;52.484;4.658;2022-07-21T00:09:15;12.63;;;7.65;;
61638;SDS011;47544;52.484;4.658;2022-07-21T00:09:27;11.98;;;7.80;;
61638;SDS011;47544;52.484;4.658;2022-07-21T00:09:38;12.57;;;8.07;;
61638;SDS011;47544;52.484;4.658;2022-07-21T00:09:49;13.07;;;8.02;;
61638;SDS011;47544;52.484;4.658;2022-07-21T00:10:03;14.20;;;8.32;;
61638;SDS011;47544;52.484;4.658;2022-07-21T00:10:14;14.65;;;8.40;;
61638;SDS011;47544;52.484;4.658;2022-07-21T00:10:25;13.82;;;8.43;;
61638;SDS011;47544;52.484;4.658;2022-07-21T00:10:36;14.48;;;8.40;;
61638;SDS011;47544;52.484;4.658;2022-07-21T00:10:47;13.20;;;8.43;;
61638;SDS011;47544;52.484;4.658;2022-07-21T00:10:58;13.32;;;8.40;;
61638;SDS011;47544;52.484;4.658;2022-07-21T00:11:09;12.10;;;7.90;;
61638;SDS011;47544;52.484;4.658;2022-07-21T00:11:21;13.02;;;7.90;;
61638;SDS011;47544;52.484;4.658;2022-07-21T00:11:32;12.40;;;7.57;;
61638;SDS011;47544;52.484;4.658;2022-07-21T00:11:43;12.30;;;7.60;;
61638;SDS011;47544;52.484;4.658;2022-07-21T00:11:54;12.48;;;7.90;;
61638;SDS011;47544;52.484;4.658;2022-07-21T00:12:05;13.47;;;8.10;;
61638;SDS011;47544;52.484;4.658;2022-07-21T00:12:16;14.80;;;8.18;;
61638;SDS011;47544;52.484;4.658;2022-07-21T00:12:27;15.18;;;8.23;;
61638;SDS011;47544;52.484;4.658;2022-07-21T00:12:37;14.90;;;8.33;;
61638;SDS011;47544;52.484;4.658;2022-07-21T00:12:48;14.43;;;8.38;;
61638;SDS011;47544;52.484;4.658;2022-07-21T00:13:00;14.05;;;8.30;;
61638;SDS011;47544;52.484;4.658;2022-07-21T00:13:11;13.48;;;8.38;;
61638;SDS011;47544;52.484;4.658;2022-07-21T00:13:22;13.43;;;8.23;;
61638;SDS011;47544;52.484;4.658;2022-07-21T00:13:33;13.05;;;8.15;;
61638;SDS011;47544;52.484;4.658;2022-07-21T00:13:44;12.63;;;8.13;;
61638;SDS011;47544;52.484;4.658;2022-07-21T00:13:55;12.68;;;8.30;;
61638;SDS011;47544;52.484;4.658;2022-07-21T00:14:07;11.85;;;8.15;;
61638;SDS011;47544;52.484;4.658;2022-07-21T00:14:20;15.13;;;8.40;;
61638;SDS011;47544;52.484;4.658;2022-07-21T00:14:32;16.25;;;8.52;;
61638;SDS011;47544;52.484;4.658;2022-07-21T00:14:44;16.48;;;8.52;;
61638;SDS011;47544;52.484;4.658;2022-07-21T00:14:55;15.98;;;8.65;;
61638;SDS011;47544;52.484;4.658;2022-07-21T00:15:07;15.60;;;8.43;;
61638;SDS011;47544;52.484;4.658;2022-07-21T00:15:22;12.60;;;7.85;;
61638;SDS011;47544;52.484;4.658;2022-07-21T00:15:33;11.82;;;7.82;;
61638;SDS011;47544;52.484;4.658;2022-07-21T00:15:44;13.10;;;7.57;;
61638;SDS011;47544;52.484;4.658;2022-07-21T00:15:56;13.73;;;7.50;;
61638;SDS011;47544;52.484;4.658;2022-07-21T00:16:08;14.35;;;7.85;;
61638;SDS011;47544;52.484;4.658;2022-07-21T00:16:19;13.90;;;8.05;;
61638;SDS011;47544;52.484;4.658;2022-07-21T00:16:30;14.20;;;8.27;;
61638;SDS011;47544;52.484;4.658;2022-07-21T00:16:41;12.60;;;8.20;;
61638;SDS011;47544;52.484;4.658;2022-07-21T00:16:53;13.27;;;8.50;;
61638;SDS011;47544;52.484;4.658;2022-07-21T00:17:04;12.68;;;8.52;;
61638;SDS011;47544;52.484;4.658;2022-07-21T00:17:15;13.13;;;8.50;;
61638;SDS011;47544;52.484;4.658;2022-07-21T00:17:28;12.80;;;8.32;;
61638;SDS011;47544;52.484;4.658;2022-07-21T00:17:39;13.77;;;8.05;;
61638;SDS011;47544;52.484;4.658;2022-07-21T00:17:50;14.43;;;7.93;;
61638;SDS011;47544;52.484;4.658;2022-07-21T00:18:01;14.43;;;7.78;;
61638;SDS011;47544;52.484;4.658;2022-07-21T00:18:12;13.40;;;7.90;;
61638;SDS011;47544;52.484;4.658;2022-07-21T00:18:23;13.98;;;7.88;;
61638;SDS011;47544;52.484;4.658;2022-07-21T00:18:34;13.82;;;8.15;;
61638;SDS011;47544;52.484;4.658;2022-07-21T00:18:46;14.40;;;8.40;;
61638;SDS011;47544;52.484;4.658;2022-07-21T00:18:57;14.00;;;8.70;;
61638;SDS011;47544;52.484;4.658;2022-07-21T00:19:09;14.00;;;8.48;;
61638;SDS011;47544;52.484;4.658;2022-07-21T00:19:20;13.68;;;8.35;;
61638;SDS011;47544;52.484;4.658;2022-07-21T00:19:31;13.48;;;8.32;;
61638;SDS011;47544;52.484;4.658;2022-07-21T00:19:42;13.13;;;8.55;;
61638;SDS011;47544;52.484;4.658;2022-07-21T00:19:53;11.75;;;8.30;;
61638;SDS011;47544;52.484;4.658;2022-07-21T00:20:05;11.57;;;8.40;;
61638;SDS011;47544;52.484;4.658;2022-07-21T00:20:20;13.18;;;8.60;;
61638;SDS011;47544;52.484;4.658;2022-07-21T00:20:31;14.32;;;8.77;;
61638;SDS011;47544;52.484;4.658;2022-07-21T00:20:43;15.27;;;8.93;;
61638;SDS011;47544;52.484;4.658;2022-07-21T00:20:54;16.10;;;9.00;;
61638;SDS011;47544;52.484;4.658;2022-07-21T00:21:06;14.40;;;8.95;;
61638;SDS011;47544;52.484;4.658;2022-07-21T00:21:17;13.83;;;8.90;;
61638;SDS011;47544;52.484;4.658;2022-07-21T00:21:28;13.07;;;8.60;;
61638;SDS011;47544;52.484;4.658;2022-07-21T00:21:39;13.10;;;8.30;;
61638;SDS011;47544;52.484;4.658;2022-07-21T00:21:51;13.93;;;8.63;;
61638;SDS011;47544;52.484;4.658;2022-07-21T00:22:02;15.00;;;8.82;;
61638;SDS011;47544;52.484;4.658;2022-07-21T00:22:12;14.90;;;9.20;;
61638;SDS011;47544;52.484;4.658;2022-07-21T00:22:23;15.30;;;9.45;;
61638;SDS011;47544;52.484;4.658;2022-07-21T00:22:34;14.32;;;9.30;;
61638;SDS011;47544;52.484;4.658;2022-07-21T00:22:45;14.48;;;8.88;;
61638;SDS011;47544;52.484;4.658;2022-07-21T00:22:56;13.98;;;8.50;;
61638;SDS011;47544;52.484;4.658;2022-07-21T00:23:08;15.27;;;8.57;;
61638;SDS011;47544;52.484;4.658;2022-07-21T00:23:18;16.70;;;8.93;;
61638;SDS011;47544;52.484;4.658;2022-07-21T00:23:29;16.77;;;8.80;;
61638;SDS011;47544;52.484;4.658;2022-07-21T00:23:41;16.05;;;8.55;;
61638;SDS011;47544;52.484;4.658;2022-07-21T00:23:52;14.35;;;8.45;;
61638;SDS011;47544;52.484;4.658;2022-07-21T00:24:03;13.77;;;8.73;;
61638;SDS011;47544;52.484;4.658;2022-07-21T00:24:14;13.40;;;8.65;;
61638;SDS011;47544;52.484;4.658;2022-07-21T00:24:25;13.60;;;8.93;;
61638;SDS011;47544;52.484;4.658;2022-07-21T00:24:36;13.77;;;9.02;;
61638;SDS011;47544;52.484;4.658;2022-07-21T00:24:49;13.18;;;9.02;;
61638;SDS011;47544;52.484;4.658;2022-07-21T00:25:04;13.80;;;9.00;;
61638;SDS011;47544;52.484;4.658;2022-07-21T00:25:15;14.32;;;9.07;;
61638;SDS011;47544;52.484;4.658;2022-07-21T00:25:26;13.80;;;9.10;;
61638;SDS011;47544;52.484;4.658;2022-07-21T00:25:37;13.77;;;8.95;;
61638;SDS011;47544;52.484;4.658;2022-07-21T00:25:48;15.30;;;8.68;;
61638;SDS011;47544;52.484;4.658;2022-07-21T00:25:59;16.67;;;8.80;;
61638;SDS011;47544;52.484;4.658;2022-07-21T00:26:09;15.02;;;8.65;;
61638;SDS011;47544;52.484;4.658;2022-07-21T00:26:21;12.70;;;8.57;;
61638;SDS011;47544;52.484;4.658;2022-07-21T00:26:32;12.23;;;8.43;;
61638;SDS011;47544;52.484;4.658;2022-07-21T00:26:43;13.30;;;8.88;;
61638;SDS011;47544;52.484;4.658;2022-07-21T00:26:54;13.57;;;9.17;;
61638;SDS011;47544;52.484;4.658;2022-07-21T00:27:05;13.48;;;9.23;;
61638;SDS011;47544;52.484;4.658;2022-07-21T00:27:17;13.80;;;9.25;;
61638;SDS011;47544;52.484;4.658;2022-07-21T00:27:28;14.20;;;9.10;;
61638;SDS011;47544;52.484;4.658;2022-07-21T00:27:39;14.63;;;9.10;;
61638;SDS011;47544;52.484;4.658;2022-07-21T00:27:51;15.32;;;9.05;;
61638;SDS011;47544;52.484;4.658;2022-07-21T00:28:02;14.95;;;9.10;;
61638;SDS011;47544;52.484;4.658;2022-07-21T00:28:13;15.27;;;9.02;;
61638;SDS011;47544;52.484;4.658;2022-07-21T00:28:24;15.43;;;9.00;;
61638;SDS011;47544;52.484;4.658;2022-07-21T00:28:35;15.85;;;8.77;;
61638;SDS011;47544;52.484;4.658;2022-07-21T00:28:46;14.43;;;8.88;;
61638;SDS011;47544;52.484;4.658;2022-07-21T00:28:56;14.50;;;8.90;;
61638;SDS011;47544;52.484;4.658;2022-07-21T00:29:07;14.88;;;9.25;;
61638;SDS011;47544;52.484;4.658;2022-07-21T00:29:19;13.93;;;9.25;;
61638;SDS011;47544;52.484;4.658;2022-07-21T00:29:30;14.80;;;9.25;;
61638;SDS011;47544;52.484;4.658;2022-07-21T00:29:43;14.05;;;9.15;;
61638;SDS011;47544;52.484;4.658;2022-07-21T00:29:55;15.00;;;9.50;;
61638;SDS011;47544;52.484;4.658;2022-07-21T00:30:08;15.77;;;9.70;;
61638;SDS011;47544;52.484;4.658;2022-07-21T00:30:19;14.90;;;9.50;;
61638;SDS011;47544;52.484;4.658;2022-07-21T00:30:30;13.82;;;9.65;;
61638;SDS011;47544;52.484;4.658;2022-07-21T00:30:41;13.98;;;9.85;;
61638;SDS011;47544;52.484;4.658;2022-07-21T00:30:53;13.68;;;9.73;;
61638;SDS011;47544;52.484;4.658;2022-07-21T00:31:05;13.90;;;9.40;;
61638;SDS011;47544;52.484;4.658;2022-07-21T00:31:16;13.32;;;9.32;;
61638;SDS011;47544;52.484;4.658;2022-07-21T00:31:27;13.20;;;9.52;;
61638;SDS011;47544;52.484;4.658;2022-07-21T00:31:38;13.18;;;9.55;;
61638;SDS011;47544;52.484;4.658;2022-07-21T00:31:48;13.35;;;9.65;;
61638;SDS011;47544;52.484;4.658;2022-07-21T00:31:59;13.18;;;9.50;;
61638;SDS011;47544;52.484;4.658;2022-07-21T00:32:11;14.68;;;9.52;;
61638;SDS011;47544;52.484;4.658;2022-07-21T00:32:21;14.05;;;9.60;;
61638;SDS011;47544;52.484;4.658;2022-07-21T00:32:33;14.23;;;9.73;;
61638;SDS011;47544;52.484;4.658;2022-07-21T00:32:44;14.80;;;9.55;;
61638;SDS011;47544;52.484;4.658;2022-07-21T00:32:55;15.45;;;9.73;;
61638;SDS011;47544;52.484;4.658;2022-07-21T00:33:06;14.73;;;9.60;;
61638;SDS011;47544;52.484;4.658;2022-07-21T00:33:17;13.55;;;9.85;;
61638;SDS011;47544;52.484;4.658;2022-07-21T00:33:28;14.73;;;10.13;;
61638;SDS011;47544;52.484;4.658;2022-07-21T00:33:40;15.52;;;10.27;;
61638;SDS011;47544;52.484;4.658;2022-07-21T00:33:51;15.30;;;9.98;;
61638;SDS011;47544;52.484;4.658;2022-07-21T00:34:02;15.35;;;9.88;;
61638;SDS011;47544;52.484;4.658;2022-07-21T00:34:13;14.90;;;9.93;;
61638;SDS011;47544;52.484;4.658;2022-07-21T00:34:25;15.48;;;9.93;;
61638;SDS011;47544;52.484;4.658;2022-07-21T00:34:36;14.18;;;9.75;;
61638;SDS011;47544;52.484;4.658;2022-07-21T00:34:47;13.65;;;9.85;;
61638;SDS011;47544;52.484;4.658;2022-07-21T00:34:58;13.70;;;10.00;;
61638;SDS011;47544;52.484;4.658;2022-07-21T00:35:09;14.40;;;10.07;;
61638;SDS011;47544;52.484;4.658;2022-07-21T00:35:22;15.40;;;9.85;;
61638;SDS011;47544;52.484;4.658;2022-07-21T00:35:34;16.48;;;9.95;;
61638;SDS011;47544;52.484;4.658;2022-07-21T00:35:45;16.33;;;10.10;;
61638;SDS011;47544;52.484;4.658;2022-07-21T00:35:55;14.73;;;10.10;;
61638;SDS011;47544;52.484;4.658;2022-07-21T00:36:07;15.93;;;10.32;;
61638;SDS011;47544;52.484;4.658;2022-07-21T00:36:18;16.33;;;10.50;;
61638;SDS011;47544;52.484;4.658;2022-07-21T00:36:29;16.08;;;10.48;;
61638;SDS011;47544;52.484;4.658;2022-07-21T00:36:39;14.48;;;10.48;;
61638;SDS011;47544;52.484;4.658;2022-07-21T00:36:51;14.73;;;10.55;;
61638;SDS011;47544;52.484;4.658;2022-07-21T00:37:04;15.30;;;10.38;;
61638;SDS011;47544;52.484;4.658;2022-07-21T00:37:15;16.30;;;9.90;;
61638;SDS011;47544;52.484;4.658;2022-07-21T00:37:26;16.20;;;10.00;;
61638;SDS011;47544;52.484;4.658;2022-07-21T00:37:38;16.23;;;10.45;;
61638;SDS011;47544;52.484;4.658;2022-07-21T00:37:49;15.50;;;11.07;;
61638;SDS011;47544;52.484;4.658;2022-07-21T00:38:00;16.23;;;11.60;;
61638;SDS011;47544;52.484;4.658;2022-07-21T00:38:12;15.35;;;11.40;;
61638;SDS011;47544;52.484;4.658;2022-07-21T00:38:24;15.30;;;11.20;;
61638;SDS011;47544;52.484;4.658;2022-07-21T00:38:35;16.90;;;11.10;;
61638;SDS011;47544;52.484;4.658;2022-07-21T00:38:46;17.42;;;11.15;;
61638;SDS011;47544;52.484;4.658;2022-07-21T00:38:57;16.30;;;10.75;;
61638;SDS011;47544;52.484;4.658;2022-07-21T00:39:08;14.75;;;10.40;;
61638;SDS011;47544;52.484;4.658;2022-07-21T00:39:18;14.48;;;10.40;;
61638;SDS011;47544;52.484;4.658;2022-07-21T00:39:29;15.27;;;10.48;;
61638;SDS011;47544;52.484;4.658;2022-07-21T00:39:40;14.63;;;10.27;;
61638;SDS011;47544;52.484;4.658;2022-07-21T00:39:52;15.63;;;10.35;;
61638;SDS011;47544;52.484;4.658;2022-07-21T00:40:06;16.70;;;10.85;;
61638;SDS011;47544;52.484;4.658;2022-07-21T00:40:18;16.45;;;11.10;;
61638;SDS011;47544;52.484;4.658;2022-07-21T00:40:29;17.13;;;11.35;;
61638;SDS011;47544;52.484;4.658;2022-07-21T00:40:41;15.38;;;10.98;;
61638;SDS011;47544;52.484;4.658;2022-07-21T00:40:53;16.00;;;11.00;;
61638;SDS011;47544;52.484;4.658;2022-07-21T00:41:05;16.40;;;10.93;;
61638;SDS011;47544;52.484;4.658;2022-07-21T00:41:16;16.80;;;11.10;;
61638;SDS011;47544;52.484;4.658;2022-07-21T00:41:26;16.73;;;11.52;;
61638;SDS011;47544;52.484;4.658;2022-07-21T00:41:37;17.10;;;11.45;;
61638;SDS011;47544;52.484;4.658;2022-07-21T00:41:48;15.93;;;11.20;;
61638;SDS011;47544;52.484;4.658;2022-07-21T00:42:00;16.63;;;11.10;;
61638;SDS011;47544;52.484;4.658;2022-07-21T00:42:19;16.67;;;11.52;;
61638;SDS011;47544;52.484;4.658;2022-07-21T00:42:31;15.98;;;10.98;;
61638;SDS011;47544;52.484;4.658;2022-07-21T00:42:43;18.45;;;11.38;;
61638;SDS011;47544;52.484;4.658;2022-07-21T00:42:54;16.95;;;11.50;;
61638;SDS011;47544;52.484;4.658;2022-07-21T00:43:06;15.73;;;11.50;;
61638;SDS011;47544;52.484;4.658;2022-07-21T00:43:17;13.73;;;11.00;;
61638;SDS011;47544;52.484;4.658;2022-07-21T00:43:27;13.98;;;10.73;;
61638;SDS011;47544;52.484;4.658;2022-07-21T00:43:38;14.30;;;10.90;;
61638;SDS011;47544;52.484;4.658;2022-07-21T00:43:49;17.17;;;11.33;;
61638;SDS011;47544;52.484;4.658;2022-07-21T00:44:02;18.13;;;11.60;;
61638;SDS011;47544;52.484;4.658;2022-07-21T00:44:20;17.98;;;11.73;;
61638;SDS011;47544;52.484;4.658;2022-07-21T00:44:31;17.95;;;12.13;;
61638;SDS011;47544;52.484;4.658;2022-07-21T00:44:42;16.80;;;11.90;;
61638;SDS011;47544;52.484;4.658;2022-07-21T00:44:53;17.23;;;11.80;;
61638;SDS011;47544;52.484;4.658;2022-07-21T00:45:05;17.23;;;11.73;;
61638;SDS011;47544;52.484;4.658;2022-07-21T00:45:18;16.73;;;11.52;;
61638;SDS011;47544;52.484;4.658;2022-07-21T00:45:32;16.13;;;11.75;;
61638;SDS011;47544;52.484;4.658;2022-07-21T00:45:43;16.40;;;12.02;;
61638;SDS011;47544;52.484;4.658;2022-07-21T00:45:54;16.02;;;11.75;;
61638;SDS011;47544;52.484;4.658;2022-07-21T00:46:05;16.05;;;11.68;;
61638;SDS011;47544;52.484;4.658;2022-07-21T00:46:16;16.35;;;11.73;;
61638;SDS011;47544;52.484;4.658;2022-07-21T00:46:30;16.90;;;11.63;;
61638;SDS011;47544;52.484;4.658;2022-07-21T00:46:41;16.15;;;11.80;;
61638;SDS011;47544;52.484;4.658;2022-07-21T00:46:53;16.60;;;11.93;;
61638;SDS011;47544;52.484;4.658;2022-07-21T00:47:05;16.70;;;12.02;;
61638;SDS011;47544;52.484;4.658;2022-07-21T00:47:18;16.85;;;11.68;;
61638;SDS011;47544;52.484;4.658;2022-07-21T00:47:30;16.38;;;11.55;;
61638;SDS011;47544;52.484;4.658;2022-07-21T00:47:41;18.95;;;11.70;;
61638;SDS011;47544;52.484;4.658;2022-07-21T00:47:53;19.80;;;11.65;;
61638;SDS011;47544;52.484;4.658;2022-07-21T00:48:04;18.17;;;11.63;;
61638;SDS011;47544;52.484;4.658;2022-07-21T00:48:15;16.77;;;11.65;;
61638;SDS011;47544;52.484;4.658;2022-07-21T00:48:26;16.52;;;11.48;;
61638;SDS011;47544;52.484;4.658;2022-07-21T00:48:37;17.00;;;11.52;;
61638;SDS011;47544;52.484;4.658;2022-07-21T00:48:48;17.90;;;11.60;;
61638;SDS011;47544;52.484;4.658;2022-07-21T00:48:58;18.23;;;11.75;;
61638;SDS011;47544;52.484;4.658;2022-07-21T00:49:09;17.03;;;11.87;;
61638;SDS011;47544;52.484;4.658;2022-07-21T00:49:24;15.52;;;11.73;;
61638;SDS011;47544;52.484;4.658;2022-07-21T00:49:35;15.75;;;11.45;;
61638;SDS011;47544;52.484;4.658;2022-07-21T00:49:46;16.98;;;11.40;;
61638;SDS011;47544;52.484;4.658;2022-07-21T00:49:57;18.13;;;11.52;;
61638;SDS011;47544;52.484;4.658;2022-07-21T00:50:09;19.33;;;11.65;;
61638;SDS011;47544;52.484;4.658;2022-07-21T00:50:21;18.60;;;11.55;;
61638;SDS011;47544;52.484;4.658;2022-07-21T00:50:32;17.27;;;11.30;;
61638;SDS011;47544;52.484;4.658;2022-07-21T00:50:44;17.50;;;10.90;;
61638;SDS011;47544;52.484;4.658;2022-07-21T00:50:55;16.65;;;10.85;;
61638;SDS011;47544;52.484;4.658;2022-07-21T00:51:07;17.33;;;11.60;;
61638;SDS011;47544;52.484;4.658;2022-07-21T00:51:17;16.08;;;12.00;;
61638;SDS011;47544;52.484;4.658;2022-07-21T00:51:28;17.77;;;12.80;;
61638;SDS011;47544;52.484;4.658;2022-07-21T00:51:39;17.10;;;12.67;;
61638;SDS011;47544;52.484;4.658;2022-07-21T00:51:51;17.00;;;12.50;;
61638;SDS011;47544;52.484;4.658;2022-07-21T00:52:02;16.10;;;12.13;;
61638;SDS011;47544;52.484;4.658;2022-07-21T00:52:13;16.75;;;12.00;;
61638;SDS011;47544;52.484;4.658;2022-07-21T00:52:25;16.58;;;12.00;;
61638;SDS011;47544;52.484;4.658;2022-07-21T00:52:36;18.00;;;12.60;;
61638;SDS011;47544;52.484;4.658;2022-07-21T00:52:47;18.88;;;12.93;;
61638;SDS011;47544;52.484;4.658;2022-07-21T00:52:58;19.08;;;13.18;;
61638;SDS011;47544;52.484;4.658;2022-07-21T00:53:12;17.75;;;13.30;;
61638;SDS011;47544;52.484;4.658;2022-07-21T00:53:24;17.25;;;13.13;;
61638;SDS011;47544;52.484;4.658;2022-07-21T00:53:38;16.95;;;12.52;;
61638;SDS011;47544;52.484;4.658;2022-07-21T00:53:49;18.05;;;12.73;;
61638;SDS011;47544;52.484;4.658;2022-07-21T00:54:00;19.00;;;13.27;;
61638;SDS011;47544;52.484;4.658;2022-07-21T00:54:14;18.27;;;13.45;;
61638;SDS011;47544;52.484;4.658;2022-07-21T00:54:25;17.20;;;13.05;;
61638;SDS011;47544;52.484;4.658;2022-07-21T00:54:36;17.88;;;12.85;;
61638;SDS011;47544;52.484;4.658;2022-07-21T00:54:47;18.13;;;13.15;;
61638;SDS011;47544;52.484;4.658;2022-07-21T00:54:59;17.67;;;13.10;;
61638;SDS011;47544;52.484;4.658;2022-07-21T00:55:11;17.42;;;13.07;;
61638;SDS011;47544;52.484;4.658;2022-07-21T00:55:23;17.05;;;12.70;;
61638;SDS011;47544;52.484;4.658;2022-07-21T00:55:34;17.52;;;12.30;;
61638;SDS011;47544;52.484;4.658;2022-07-21T00:55:46;16.98;;;12.43;;
61638;SDS011;47544;52.484;4.658;2022-07-21T00:55:57;17.50;;;12.77;;
61638;SDS011;47544;52.484;4.658;2022-07-21T00:56:08;17.58;;;12.77;;
61638;SDS011;47544;52.484;4.658;2022-07-21T00:56:20;17.63;;;12.57;;
61638;SDS011;47544;52.484;4.658;2022-07-21T00:56:31;17.73;;;12.48;;
61638;SDS011;47544;52.484;4.658;2022-07-21T00:56:45;18.17;;;12.85;;
61638;SDS011;47544;52.484;4.658;2022-07-21T00:56:57;19.17;;;12.88;;
61638;SDS011;47544;52.484;4.658;2022-07-21T00:57:08;19.23;;;13.20;;
61638;SDS011;47544;52.484;4.658;2022-07-21T00:57:19;17.35;;;13.13;;
61638;SDS011;47544;52.484;4.658;2022-07-21T00:57:31;17.23;;;12.98;;
61638;SDS011;47544;52.484;4.658;2022-07-21T00:57:43;16.55;;;12.43;;
61638;SDS011;47544;52.484;4.658;2022-07-21T00:57:54;17.73;;;12.98;;
61638;SDS011;47544;52.484;4.658;2022-07-21T00:58:05;18.02;;;13.25;;
61638;SDS011;47544;52.484;4.658;2022-07-21T00:58:16;17.73;;;13.30;;
61638;SDS011;47544;52.484;4.658;2022-07-21T00:58:28;16.40;;;12.93;;
61638;SDS011;47544;52.484;4.658;2022-07-21T00:58:39;17.95;;;13.38;;
61638;SDS011;47544;52.484;4.658;2022-07-21T00:58:50;19.58;;;13.65;;
61638;SDS011;47544;52.484;4.658;2022-07-21T00:59:01;19.40;;;13.45;;
61638;SDS011;47544;52.484;4.658;2022-07-21T00:59:12;19.30;;;13.38;;
61638;SDS011;47544;52.484;4.658;2022-07-21T00:59:26;18.65;;;13.52;;
61638;SDS011;47544;52.484;4.658;2022-07-21T00:59:38;17.77;;;13.63;;
61638;SDS011;47544;52.484;4.658;2022-07-21T00:59:49;18.42;;;13.63;;
61638;SDS011;47544;52.484;4.658;2022-07-21T00:59:59;19.35;;;13.20;;
61638;SDS011;47544;52.484;4.658;2022-07-21T01:00:12;19.80;;;13.10;;
61638;SDS011;47544;52.484;4.658;2022-07-21T01:00:28;18.25;;;13.07;;
61638;SDS011;47544;52.484;4.658;2022-07-21T01:00:39;17.88;;;13.00;;
61638;SDS011;47544;52.484;4.658;2022-07-21T01:00:50;17.85;;;12.80;;
61638;SDS011;47544;52.484;4.658;2022-07-21T01:01:01;17.67;;;12.85;;
61638;SDS011;47544;52.484;4.658;2022-07-21T01:01:12;16.40;;;12.63;;
61638;SDS011;47544;52.484;4.658;2022-07-21T01:01:23;17.27;;;12.50;;
61638;SDS011;47544;52.484;4.658;2022-07-21T01:01:34;18.50;;;12.52;;
61638;SDS011;47544;52.484;4.658;2022-07-21T01:01:45;19.50;;;12.55;;
61638;SDS011;47544;52.484;4.658;2022-07-21T01:01:58;19.33;;;13.00;;
61638;SDS011;47544;52.484;4.658;2022-07-21T01:02:09;17.25;;;12.95;;
61638;SDS011;47544;52.484;4.658;2022-07-21T01:02:21;17.00;;;13.40;;
61638;SDS011;47544;52.484;4.658;2022-07-21T01:02:32;16.88;;;13.25;;
61638;SDS011;47544;52.484;4.658;2022-07-21T01:02:47;17.38;;;13.60;;
61638;SDS011;47544;52.484;4.658;2022-07-21T01:02:58;17.10;;;13.52;;
61638;SDS011;47544;52.484;4.658;2022-07-21T01:03:09;18.17;;;13.77;;
61638;SDS011;47544;52.484;4.658;2022-07-21T01:03:21;18.00;;;13.57;;
61638;SDS011;47544;52.484;4.658;2022-07-21T01:03:32;18.00;;;13.53;;
61638;SDS011;47544;52.484;4.658;2022-07-21T01:03:43;17.10;;;13.13;;
61638;SDS011;47544;52.484;4.658;2022-07-21T01:03:53;16.92;;;12.95;;
61638;SDS011;47544;52.484;4.658;2022-07-21T01:04:07;17.10;;;12.73;;
61638;SDS011;47544;52.484;4.658;2022-07-21T01:04:20;16.98;;;12.68;;
61638;SDS011;47544;52.484;4.658;2022-07-21T01:04:33;17.52;;;12.98;;
61638;SDS011;47544;52.484;4.658;2022-07-21T01:04:44;16.85;;;13.07;;
61638;SDS011;47544;52.484;4.658;2022-07-21T01:04:56;17.98;;;13.20;;
61638;SDS011;47544;52.484;4.658;2022-07-21T01:05:07;18.92;;;13.52;;
61638;SDS011;47544;52.484;4.658;2022-07-21T01:05:23;20.10;;;13.88;;
61638;SDS011;47544;52.484;4.658;2022-07-21T01:05:34;21.02;;;13.75;;
61638;SDS011;47544;52.484;4.658;2022-07-21T01:05:45;20.30;;;13.85;;
61638;SDS011;47544;52.484;4.658;2022-07-21T01:05:56;19.42;;;13.70;;
61638;SDS011;47544;52.484;4.658;2022-07-21T01:06:08;17.58;;;13.13;;
61638;SDS011;47544;52.484;4.658;2022-07-21T01:06:20;17.42;;;13.10;;
61638;SDS011;47544;52.484;4.658;2022-07-21T01:06:31;18.38;;;13.07;;
61638;SDS011;47544;52.484;4.658;2022-07-21T01:06:42;19.33;;;13.50;;
61638;SDS011;47544;52.484;4.658;2022-07-21T01:06:53;19.17;;;13.40;;
61638;SDS011;47544;52.484;4.658;2022-07-21T01:07:05;19.02;;;13.68;;
61638;SDS011;47544;52.484;4.658;2022-07-21T01:07:16;18.42;;;13.30;;
61638;SDS011;47544;52.484;4.658;2022-07-21T01:07:30;18.30;;;13.40;;
61638;SDS011;47544;52.484;4.658;2022-07-21T01:07:42;18.10;;;13.38;;